sensor_id;sensor_type;location;lat;lon;timestamp;P1;durP1;ratioP1;P2;durP2;ratioP2
43813;SDS011;29669;55.706;37.656;2023-03-23T00:02:24;3.00;;;2.53;;
43813;SDS011;29669;55.706;37.656;2023-03-23T00:04:51;3.63;;;2.50;;
43813;SDS011;29669;55.706;37.656;2023-03-23T00:07:20;3.13;;;2.67;;
43813;SDS011;29669;55.706;37.656;2023-03-23T00:09:47;3.33;;;2.38;;
43813;SDS011;29669;55.706;37.656;2023-03-23T00:12:20;3.20;;;2.30;;
43813;SDS011;29669;55.706;37.656;2023-03-23T00:15:08;3.10;;;2.45;;
43813;SDS011;29669;55.706;37.656;2023-03-23T00:17:38;2.92;;;2.53;;
43813;SDS011;29669;55.706;37.656;2023-03-23T00:20:06;5.57;;;2.92;;
43813;SDS011;29669;55.706;37.656;2023-03-23T00:22:36;4.30;;;2.72;;
43813;SDS011;29669;55.706;37.656;2023-03-23T00:25:04;5.20;;;2.78;;
43813;SDS011;29669;55.706;37.656;2023-03-23T00:27:33;3.30;;;2.50;;
43813;SDS011;29669;55.706;37.656;2023-03-23T00:29:59;2.80;;;2.42;;
43813;SDS011;29669;55.706;37.656;2023-03-23T00:32:26;3.58;;;2.70;;
43813;SDS011;29669;55.706;37.656;2023-03-23T00:34:53;3.85;;;2.78;;
43813;SDS011;29669;55.706;37.656;2023-03-23T00:37:22;4.50;;;2.90;;
43813;SDS011;29669;55.706;37.656;2023-03-23T00:39:52;3.88;;;2.70;;
43813;SDS011;29669;55.706;37.656;2023-03-23T00:42:23;3.45;;;2.45;;
43813;SDS011;29669;55.706;37.656;2023-03-23T00:44:52;4.97;;;2.65;;
43813;SDS011;29669;55.706;37.656;2023-03-23T00:47:26;4.10;;;2.85;;
43813;SDS011;29669;55.706;37.656;2023-03-23T00:49:53;4.07;;;2.33;;
43813;SDS011;29669;55.706;37.656;2023-03-23T00:52:25;3.38;;;2.72;;
43813;SDS011;29669;55.706;37.656;2023-03-23T00:54:51;3.00;;;2.50;;
43813;SDS011;29669;55.706;37.656;2023-03-23T00:57:18;3.17;;;2.67;;
43813;SDS011;29669;55.706;37.656;2023-03-23T00:59:45;3.67;;;2.67;;
43813;SDS011;29669;55.706;37.656;2023-03-23T01:02:14;3.90;;;2.58;;
43813;SDS011;29669;55.706;37.656;2023-03-23T01:04:41;4.90;;;2.80;;
43813;SDS011;29669;55.706;37.656;2023-03-23T01:07:11;4.80;;;2.90;;
43813;SDS011;29669;55.706;37.656;2023-03-23T01:09:44;4.90;;;3.25;;
43813;SDS011;29669;55.706;37.656;2023-03-23T01:12:12;3.17;;;2.55;;
43813;SDS011;29669;55.706;37.656;2023-03-23T01:14:38;4.18;;;2.53;;
43813;SDS011;29669;55.706;37.656;2023-03-23T01:17:06;5.13;;;2.55;;
43813;SDS011;29669;55.706;37.656;2023-03-23T01:19:34;3.83;;;2.58;;
43813;SDS011;29669;55.706;37.656;2023-03-23T01:22:01;3.67;;;2.47;;
43813;SDS011;29669;55.706;37.656;2023-03-23T01:24:29;3.50;;;2.42;;
43813;SDS011;29669;55.706;37.656;2023-03-23T01:26:57;3.85;;;2.83;;
43813;SDS011;29669;55.706;37.656;2023-03-23T01:29:27;2.80;;;2.28;;
43813;SDS011;29669;55.706;37.656;2023-03-23T01:31:55;4.07;;;2.50;;
43813;SDS011;29669;55.706;37.656;2023-03-23T01:34:21;4.78;;;2.85;;
43813;SDS011;29669;55.706;37.656;2023-03-23T01:36:51;3.25;;;2.40;;
43813;SDS011;29669;55.706;37.656;2023-03-23T01:39:18;3.50;;;2.30;;
43813;SDS011;29669;55.706;37.656;2023-03-23T01:41:45;3.08;;;2.30;;
43813;SDS011;29669;55.706;37.656;2023-03-23T01:46:53;3.97;;;2.60;;
43813;SDS011;29669;55.706;37.656;2023-03-23T01:49:56;3.50;;;2.13;;
43813;SDS011;29669;55.706;37.656;2023-03-23T01:52:25;3.03;;;2.28;;
43813;SDS011;29669;55.706;37.656;2023-03-23T01:55:01;4.13;;;2.58;;
43813;SDS011;29669;55.706;37.656;2023-03-23T01:57:29;6.38;;;2.92;;
43813;SDS011;29669;55.706;37.656;2023-03-23T01:59:59;5.38;;;2.40;;
43813;SDS011;29669;55.706;37.656;2023-03-23T02:02:57;4.00;;;2.17;;
43813;SDS011;29669;55.706;37.656;2023-03-23T02:05:31;6.15;;;2.35;;
43813;SDS011;29669;55.706;37.656;2023-03-23T02:08:09;3.87;;;2.40;;
43813;SDS011;29669;55.706;37.656;2023-03-23T02:10:39;3.88;;;2.80;;
43813;SDS011;29669;55.706;37.656;2023-03-23T02:13:08;3.45;;;2.60;;
43813;SDS011;29669;55.706;37.656;2023-03-23T02:18:16;3.75;;;2.70;;
43813;SDS011;29669;55.706;37.656;2023-03-23T02:32:38;5.25;;;2.60;;
43813;SDS011;29669;55.706;37.656;2023-03-23T02:35:29;4.90;;;2.63;;
43813;SDS011;29669;55.706;37.656;2023-03-23T02:38:04;3.83;;;2.70;;
43813;SDS011;29669;55.706;37.656;2023-03-23T02:40:38;4.03;;;3.17;;
43813;SDS011;29669;55.706;37.656;2023-03-23T02:43:08;8.73;;;2.70;;
43813;SDS011;29669;55.706;37.656;2023-03-23T02:45:38;4.85;;;2.42;;
43813;SDS011;29669;55.706;37.656;2023-03-23T02:48:08;4.45;;;2.75;;
43813;SDS011;29669;55.706;37.656;2023-03-23T02:50:36;3.47;;;2.70;;
43813;SDS011;29669;55.706;37.656;2023-03-23T02:53:05;3.50;;;2.30;;
43813;SDS011;29669;55.706;37.656;2023-03-23T02:55:36;8.55;;;3.05;;
43813;SDS011;29669;55.706;37.656;2023-03-23T02:58:11;3.17;;;2.25;;
43813;SDS011;29669;55.706;37.656;2023-03-23T03:00:40;7.57;;;3.65;;
43813;SDS011;29669;55.706;37.656;2023-03-23T03:03:09;5.55;;;3.03;;
43813;SDS011;29669;55.706;37.656;2023-03-23T03:11:17;3.95;;;2.50;;
43813;SDS011;29669;55.706;37.656;2023-03-23T03:13:59;6.60;;;4.15;;
43813;SDS011;29669;55.706;37.656;2023-03-23T03:16:35;6.03;;;3.00;;
43813;SDS011;29669;55.706;37.656;2023-03-23T03:21:52;6.50;;;3.08;;
43813;SDS011;29669;55.706;37.656;2023-03-23T03:24:30;7.10;;;3.08;;
43813;SDS011;29669;55.706;37.656;2023-03-23T03:26:58;6.22;;;2.88;;
43813;SDS011;29669;55.706;37.656;2023-03-23T03:29:39;4.30;;;3.00;;
43813;SDS011;29669;55.706;37.656;2023-03-23T03:32:11;5.40;;;3.60;;
43813;SDS011;29669;55.706;37.656;2023-03-23T03:34:41;4.18;;;2.67;;
43813;SDS011;29669;55.706;37.656;2023-03-23T03:37:09;6.50;;;3.13;;
43813;SDS011;29669;55.706;37.656;2023-03-23T03:39:38;4.80;;;2.72;;
43813;SDS011;29669;55.706;37.656;2023-03-23T03:42:05;5.72;;;3.20;;
43813;SDS011;29669;55.706;37.656;2023-03-23T03:44:32;7.68;;;3.35;;
43813;SDS011;29669;55.706;37.656;2023-03-23T03:47:00;5.20;;;2.55;;
43813;SDS011;29669;55.706;37.656;2023-03-23T03:49:27;5.05;;;2.80;;
43813;SDS011;29669;55.706;37.656;2023-03-23T03:51:57;8.80;;;3.10;;
43813;SDS011;29669;55.706;37.656;2023-03-23T03:54:35;5.20;;;3.72;;
43813;SDS011;29669;55.706;37.656;2023-03-23T03:57:03;4.70;;;3.25;;
43813;SDS011;29669;55.706;37.656;2023-03-23T03:59:48;8.07;;;3.85;;
43813;SDS011;29669;55.706;37.656;2023-03-23T04:02:33;5.82;;;3.28;;
43813;SDS011;29669;55.706;37.656;2023-03-23T04:05:00;5.43;;;3.75;;
43813;SDS011;29669;55.706;37.656;2023-03-23T04:07:31;4.70;;;3.17;;
43813;SDS011;29669;55.706;37.656;2023-03-23T04:10:00;8.98;;;4.47;;
43813;SDS011;29669;55.706;37.656;2023-03-23T04:12:28;6.25;;;3.40;;
43813;SDS011;29669;55.706;37.656;2023-03-23T04:14:54;5.65;;;3.15;;
43813;SDS011;29669;55.706;37.656;2023-03-23T04:17:38;9.32;;;4.95;;
43813;SDS011;29669;55.706;37.656;2023-03-23T04:20:10;4.35;;;2.95;;
43813;SDS011;29669;55.706;37.656;2023-03-23T04:22:41;7.65;;;4.20;;
43813;SDS011;29669;55.706;37.656;2023-03-23T04:25:11;7.95;;;4.10;;
43813;SDS011;29669;55.706;37.656;2023-03-23T04:27:41;8.82;;;3.50;;
43813;SDS011;29669;55.706;37.656;2023-03-23T04:30:13;7.13;;;3.33;;
43813;SDS011;29669;55.706;37.656;2023-03-23T04:32:44;7.32;;;4.00;;
43813;SDS011;29669;55.706;37.656;2023-03-23T04:35:18;11.23;;;4.15;;
43813;SDS011;29669;55.706;37.656;2023-03-23T04:37:53;5.95;;;3.75;;
43813;SDS011;29669;55.706;37.656;2023-03-23T04:40:21;8.77;;;4.80;;
43813;SDS011;29669;55.706;37.656;2023-03-23T04:42:59;7.53;;;3.83;;
43813;SDS011;29669;55.706;37.656;2023-03-23T04:46:00;10.23;;;4.75;;
43813;SDS011;29669;55.706;37.656;2023-03-23T04:48:31;6.88;;;4.47;;
43813;SDS011;29669;55.706;37.656;2023-03-23T04:51:07;9.38;;;5.40;;
43813;SDS011;29669;55.706;37.656;2023-03-23T04:53:36;8.45;;;4.45;;
43813;SDS011;29669;55.706;37.656;2023-03-23T04:56:14;6.85;;;4.80;;
43813;SDS011;29669;55.706;37.656;2023-03-23T04:58:47;13.32;;;4.53;;
43813;SDS011;29669;55.706;37.656;2023-03-23T05:01:30;6.20;;;4.10;;
43813;SDS011;29669;55.706;37.656;2023-03-23T05:04:11;7.90;;;4.78;;
43813;SDS011;29669;55.706;37.656;2023-03-23T05:06:50;13.45;;;5.65;;
43813;SDS011;29669;55.706;37.656;2023-03-23T05:09:34;8.20;;;4.22;;
43813;SDS011;29669;55.706;37.656;2023-03-23T05:12:09;9.85;;;4.72;;
43813;SDS011;29669;55.706;37.656;2023-03-23T05:14:49;10.88;;;4.55;;
43813;SDS011;29669;55.706;37.656;2023-03-23T05:17:22;9.18;;;5.20;;
43813;SDS011;29669;55.706;37.656;2023-03-23T05:19:57;10.32;;;5.63;;
43813;SDS011;29669;55.706;37.656;2023-03-23T05:22:41;12.23;;;5.03;;
43813;SDS011;29669;55.706;37.656;2023-03-23T05:25:12;7.68;;;4.05;;
43813;SDS011;29669;55.706;37.656;2023-03-23T05:27:47;19.33;;;6.47;;
43813;SDS011;29669;55.706;37.656;2023-03-23T05:30:45;9.70;;;4.90;;
43813;SDS011;29669;55.706;37.656;2023-03-23T05:33:14;11.38;;;5.70;;
43813;SDS011;29669;55.706;37.656;2023-03-23T05:35:54;9.43;;;4.80;;
43813;SDS011;29669;55.706;37.656;2023-03-23T05:38:29;11.55;;;4.78;;
43813;SDS011;29669;55.706;37.656;2023-03-23T05:40:58;10.75;;;5.72;;
43813;SDS011;29669;55.706;37.656;2023-03-23T05:43:34;11.73;;;6.35;;
43813;SDS011;29669;55.706;37.656;2023-03-23T05:46:27;9.85;;;5.75;;
43813;SDS011;29669;55.706;37.656;2023-03-23T05:49:00;12.65;;;6.10;;
43813;SDS011;29669;55.706;37.656;2023-03-23T05:51:33;10.90;;;6.40;;
43813;SDS011;29669;55.706;37.656;2023-03-23T05:54:02;13.05;;;6.30;;
43813;SDS011;29669;55.706;37.656;2023-03-23T05:56:30;8.43;;;5.35;;
43813;SDS011;29669;55.706;37.656;2023-03-23T05:59:25;10.27;;;5.18;;
43813;SDS011;29669;55.706;37.656;2023-03-23T06:01:54;11.63;;;5.90;;
43813;SDS011;29669;55.706;37.656;2023-03-23T06:04:21;9.85;;;5.72;;
43813;SDS011;29669;55.706;37.656;2023-03-23T06:07:11;13.77;;;6.13;;
43813;SDS011;29669;55.706;37.656;2023-03-23T06:09:47;11.20;;;5.65;;
43813;SDS011;29669;55.706;37.656;2023-03-23T06:12:23;12.30;;;5.75;;
43813;SDS011;29669;55.706;37.656;2023-03-23T06:15:11;9.63;;;5.63;;
43813;SDS011;29669;55.706;37.656;2023-03-23T06:18:06;16.13;;;5.40;;
43813;SDS011;29669;55.706;37.656;2023-03-23T06:20:41;10.85;;;5.50;;
43813;SDS011;29669;55.706;37.656;2023-03-23T06:23:23;12.95;;;6.32;;
43813;SDS011;29669;55.706;37.656;2023-03-23T06:25:55;14.38;;;6.63;;
43813;SDS011;29669;55.706;37.656;2023-03-23T06:28:26;11.35;;;6.05;;
43813;SDS011;29669;55.706;37.656;2023-03-23T06:30:54;12.23;;;6.22;;
43813;SDS011;29669;55.706;37.656;2023-03-23T06:33:21;14.52;;;6.75;;
43813;SDS011;29669;55.706;37.656;2023-03-23T06:36:18;10.35;;;5.68;;
43813;SDS011;29669;55.706;37.656;2023-03-23T06:39:15;14.68;;;6.35;;
43813;SDS011;29669;55.706;37.656;2023-03-23T06:42:08;10.40;;;6.28;;
43813;SDS011;29669;55.706;37.656;2023-03-23T06:44:39;12.43;;;6.05;;
43813;SDS011;29669;55.706;37.656;2023-03-23T06:47:06;10.07;;;5.57;;
43813;SDS011;29669;55.706;37.656;2023-03-23T06:49:37;12.23;;;5.85;;
43813;SDS011;29669;55.706;37.656;2023-03-23T06:52:15;10.68;;;5.35;;
43813;SDS011;29669;55.706;37.656;2023-03-23T06:54:44;12.25;;;6.38;;
43813;SDS011;29669;55.706;37.656;2023-03-23T06:57:12;9.05;;;5.75;;
43813;SDS011;29669;55.706;37.656;2023-03-23T06:59:44;16.77;;;8.07;;
43813;SDS011;29669;55.706;37.656;2023-03-23T07:02:12;8.68;;;5.07;;
43813;SDS011;29669;55.706;37.656;2023-03-23T07:04:41;9.80;;;5.93;;
43813;SDS011;29669;55.706;37.656;2023-03-23T07:07:14;12.77;;;6.15;;
43813;SDS011;29669;55.706;37.656;2023-03-23T07:09:52;10.30;;;6.68;;
43813;SDS011;29669;55.706;37.656;2023-03-23T07:12:23;9.90;;;4.97;;
43813;SDS011;29669;55.706;37.656;2023-03-23T07:14:52;7.18;;;4.55;;
43813;SDS011;29669;55.706;37.656;2023-03-23T07:17:18;10.25;;;5.75;;
43813;SDS011;29669;55.706;37.656;2023-03-23T07:20:04;9.70;;;5.15;;
43813;SDS011;29669;55.706;37.656;2023-03-23T07:22:33;10.65;;;5.30;;
43813;SDS011;29669;55.706;37.656;2023-03-23T07:25:08;9.95;;;5.95;;
43813;SDS011;29669;55.706;37.656;2023-03-23T07:27:44;10.95;;;5.22;;
43813;SDS011;29669;55.706;37.656;2023-03-23T07:30:13;9.70;;;5.72;;
43813;SDS011;29669;55.706;37.656;2023-03-23T07:32:41;11.93;;;4.97;;
43813;SDS011;29669;55.706;37.656;2023-03-23T07:35:08;10.25;;;5.60;;
43813;SDS011;29669;55.706;37.656;2023-03-23T07:37:43;9.32;;;5.20;;
43813;SDS011;29669;55.706;37.656;2023-03-23T07:40:11;11.07;;;5.63;;
43813;SDS011;29669;55.706;37.656;2023-03-23T07:42:46;13.48;;;5.55;;
43813;SDS011;29669;55.706;37.656;2023-03-23T07:45:26;12.82;;;5.53;;
43813;SDS011;29669;55.706;37.656;2023-03-23T07:47:56;7.13;;;4.53;;
43813;SDS011;29669;55.706;37.656;2023-03-23T07:50:23;7.50;;;5.07;;
43813;SDS011;29669;55.706;37.656;2023-03-23T07:52:53;7.13;;;4.38;;
43813;SDS011;29669;55.706;37.656;2023-03-23T07:55:23;8.50;;;4.55;;
43813;SDS011;29669;55.706;37.656;2023-03-23T07:58:10;12.15;;;5.43;;
43813;SDS011;29669;55.706;37.656;2023-03-23T08:00:43;9.63;;;4.97;;
43813;SDS011;29669;55.706;37.656;2023-03-23T08:03:10;11.90;;;5.45;;
43813;SDS011;29669;55.706;37.656;2023-03-23T08:05:47;8.68;;;4.60;;
43813;SDS011;29669;55.706;37.656;2023-03-23T08:08:16;9.95;;;5.10;;
43813;SDS011;29669;55.706;37.656;2023-03-23T08:11:04;8.45;;;4.57;;
43813;SDS011;29669;55.706;37.656;2023-03-23T08:13:37;9.93;;;4.55;;
43813;SDS011;29669;55.706;37.656;2023-03-23T08:16:17;12.82;;;5.03;;
43813;SDS011;29669;55.706;37.656;2023-03-23T08:22:03;7.95;;;4.30;;
43813;SDS011;29669;55.706;37.656;2023-03-23T08:24:40;7.18;;;4.93;;
43813;SDS011;29669;55.706;37.656;2023-03-23T08:27:33;12.70;;;4.72;;
43813;SDS011;29669;55.706;37.656;2023-03-23T08:30:21;5.43;;;4.30;;
43813;SDS011;29669;55.706;37.656;2023-03-23T08:33:21;10.82;;;4.60;;
43813;SDS011;29669;55.706;37.656;2023-03-23T08:36:08;5.63;;;4.20;;
43813;SDS011;29669;55.706;37.656;2023-03-23T08:38:53;7.22;;;4.38;;
43813;SDS011;29669;55.706;37.656;2023-03-23T08:41:39;9.00;;;5.13;;
43813;SDS011;29669;55.706;37.656;2023-03-23T08:44:17;12.13;;;4.60;;
43813;SDS011;29669;55.706;37.656;2023-03-23T08:46:53;6.10;;;4.72;;
43813;SDS011;29669;55.706;37.656;2023-03-23T08:49:38;8.07;;;4.65;;
43813;SDS011;29669;55.706;37.656;2023-03-23T08:54:59;5.25;;;3.78;;
43813;SDS011;29669;55.706;37.656;2023-03-23T08:57:47;11.40;;;4.72;;
43813;SDS011;29669;55.706;37.656;2023-03-23T09:00:26;8.65;;;5.00;;
43813;SDS011;29669;55.706;37.656;2023-03-23T09:03:19;11.57;;;5.63;;
43813;SDS011;29669;55.706;37.656;2023-03-23T09:06:05;9.88;;;5.28;;
43813;SDS011;29669;55.706;37.656;2023-03-23T09:08:43;8.90;;;5.10;;
43813;SDS011;29669;55.706;37.656;2023-03-23T09:11:10;13.93;;;5.20;;
43813;SDS011;29669;55.706;37.656;2023-03-23T09:13:38;9.60;;;5.10;;
43813;SDS011;29669;55.706;37.656;2023-03-23T09:16:06;10.30;;;4.88;;
43813;SDS011;29669;55.706;37.656;2023-03-23T09:18:33;18.58;;;5.22;;
43813;SDS011;29669;55.706;37.656;2023-03-23T09:21:01;7.75;;;5.38;;
43813;SDS011;29669;55.706;37.656;2023-03-23T09:23:29;14.38;;;5.72;;
43813;SDS011;29669;55.706;37.656;2023-03-23T09:25:56;12.75;;;5.60;;
43813;SDS011;29669;55.706;37.656;2023-03-23T09:28:23;13.80;;;4.80;;
43813;SDS011;29669;55.706;37.656;2023-03-23T09:30:51;13.10;;;5.18;;
43813;SDS011;29669;55.706;37.656;2023-03-23T09:33:23;6.88;;;4.95;;
43813;SDS011;29669;55.706;37.656;2023-03-23T09:35:50;8.27;;;4.80;;
43813;SDS011;29669;55.706;37.656;2023-03-23T09:38:17;9.23;;;5.05;;
43813;SDS011;29669;55.706;37.656;2023-03-23T09:51:40;8.50;;;4.85;;
43813;SDS011;29669;55.706;37.656;2023-03-23T09:57:03;10.35;;;4.88;;
43813;SDS011;29669;55.706;37.656;2023-03-23T09:59:49;11.75;;;5.03;;
43813;SDS011;29669;55.706;37.656;2023-03-23T10:02:34;6.78;;;4.68;;
43813;SDS011;29669;55.706;37.656;2023-03-23T10:07:58;5.32;;;4.50;;
43813;SDS011;29669;55.706;37.656;2023-03-23T10:16:20;4.85;;;4.05;;
43813;SDS011;29669;55.706;37.656;2023-03-23T10:18:53;6.65;;;4.63;;
43813;SDS011;29669;55.706;37.656;2023-03-23T10:21:27;8.18;;;4.55;;
43813;SDS011;29669;55.706;37.656;2023-03-23T10:24:01;14.60;;;4.47;;
43813;SDS011;29669;55.706;37.656;2023-03-23T10:29:15;13.55;;;5.20;;
43813;SDS011;29669;55.706;37.656;2023-03-23T10:31:58;12.70;;;5.50;;
43813;SDS011;29669;55.706;37.656;2023-03-23T10:34:32;8.23;;;4.53;;
43813;SDS011;29669;55.706;37.656;2023-03-23T10:37:18;11.35;;;4.78;;
43813;SDS011;29669;55.706;37.656;2023-03-23T10:39:53;6.32;;;4.25;;
43813;SDS011;29669;55.706;37.656;2023-03-23T10:42:29;11.52;;;5.00;;
43813;SDS011;29669;55.706;37.656;2023-03-23T10:45:16;9.70;;;3.95;;
43813;SDS011;29669;55.706;37.656;2023-03-23T10:48:02;6.32;;;3.80;;
43813;SDS011;29669;55.706;37.656;2023-03-23T10:50:46;6.55;;;4.18;;
43813;SDS011;29669;55.706;37.656;2023-03-23T10:53:19;7.38;;;4.15;;
43813;SDS011;29669;55.706;37.656;2023-03-23T10:55:49;6.65;;;4.22;;
43813;SDS011;29669;55.706;37.656;2023-03-23T10:58:23;9.55;;;4.70;;
43813;SDS011;29669;55.706;37.656;2023-03-23T11:01:01;7.80;;;4.15;;
43813;SDS011;29669;55.706;37.656;2023-03-23T11:06:08;6.10;;;4.25;;
43813;SDS011;29669;55.706;37.656;2023-03-23T11:11:29;6.43;;;4.13;;
43813;SDS011;29669;55.706;37.656;2023-03-23T11:14:19;7.35;;;4.28;;
43813;SDS011;29669;55.706;37.656;2023-03-23T11:16:51;7.75;;;5.40;;
43813;SDS011;29669;55.706;37.656;2023-03-23T11:19:25;13.15;;;4.85;;
43813;SDS011;29669;55.706;37.656;2023-03-23T11:24:33;15.52;;;5.38;;
43813;SDS011;29669;55.706;37.656;2023-03-23T11:27:09;10.50;;;4.38;;
43813;SDS011;29669;55.706;37.656;2023-03-23T11:29:48;5.30;;;3.63;;
43813;SDS011;29669;55.706;37.656;2023-03-23T11:32:15;9.00;;;5.20;;
43813;SDS011;29669;55.706;37.656;2023-03-23T11:34:44;4.47;;;3.65;;
43813;SDS011;29669;55.706;37.656;2023-03-23T11:37:14;9.20;;;3.80;;
43813;SDS011;29669;55.706;37.656;2023-03-23T11:39:47;13.15;;;4.47;;
43813;SDS011;29669;55.706;37.656;2023-03-23T11:42:19;11.68;;;4.18;;
43813;SDS011;29669;55.706;37.656;2023-03-23T11:50:18;4.00;;;3.38;;
43813;SDS011;29669;55.706;37.656;2023-03-23T11:52:51;5.45;;;3.78;;
43813;SDS011;29669;55.706;37.656;2023-03-23T11:58:26;8.75;;;3.40;;
43813;SDS011;29669;55.706;37.656;2023-03-23T12:01:00;5.05;;;3.45;;
43813;SDS011;29669;55.706;37.656;2023-03-23T12:28:59;4.68;;;3.40;;
43813;SDS011;29669;55.706;37.656;2023-03-23T12:48:33;6.43;;;3.90;;
43813;SDS011;29669;55.706;37.656;2023-03-23T12:52:16;4.18;;;3.25;;
43813;SDS011;29669;55.706;37.656;2023-03-23T13:03:18;8.68;;;3.83;;
43813;SDS011;29669;55.706;37.656;2023-03-23T13:08:54;9.88;;;4.10;;
43813;SDS011;29669;55.706;37.656;2023-03-23T13:11:36;5.25;;;3.58;;
43813;SDS011;29669;55.706;37.656;2023-03-23T13:20:07;9.32;;;3.85;;
43813;SDS011;29669;55.706;37.656;2023-03-23T13:28:14;10.00;;;3.92;;
43813;SDS011;29669;55.706;37.656;2023-03-23T13:30:53;8.25;;;3.97;;
43813;SDS011;29669;55.706;37.656;2023-03-23T13:33:21;7.78;;;4.00;;
43813;SDS011;29669;55.706;37.656;2023-03-23T13:35:52;10.30;;;3.80;;
43813;SDS011;29669;55.706;37.656;2023-03-23T13:38:23;5.32;;;3.80;;
43813;SDS011;29669;55.706;37.656;2023-03-23T13:41:05;9.05;;;3.40;;
43813;SDS011;29669;55.706;37.656;2023-03-23T13:43:34;9.55;;;4.38;;
43813;SDS011;29669;55.706;37.656;2023-03-23T13:46:07;7.15;;;3.20;;
43813;SDS011;29669;55.706;37.656;2023-03-23T13:48:45;11.38;;;3.70;;
43813;SDS011;29669;55.706;37.656;2023-03-23T13:54:04;5.95;;;3.55;;
43813;SDS011;29669;55.706;37.656;2023-03-23T13:56:47;7.07;;;4.15;;
43813;SDS011;29669;55.706;37.656;2023-03-23T13:59:30;11.18;;;4.05;;
43813;SDS011;29669;55.706;37.656;2023-03-23T14:05:19;8.60;;;3.65;;
43813;SDS011;29669;55.706;37.656;2023-03-23T14:10:39;4.57;;;4.00;;
43813;SDS011;29669;55.706;37.656;2023-03-23T14:13:23;6.30;;;3.80;;
43813;SDS011;29669;55.706;37.656;2023-03-23T14:18:26;6.82;;;4.32;;
43813;SDS011;29669;55.706;37.656;2023-03-23T14:21:03;4.55;;;3.72;;
43813;SDS011;29669;55.706;37.656;2023-03-23T14:26:10;4.65;;;3.35;;
43813;SDS011;29669;55.706;37.656;2023-03-23T14:28:41;7.13;;;3.55;;
43813;SDS011;29669;55.706;37.656;2023-03-23T14:31:23;7.55;;;3.60;;
43813;SDS011;29669;55.706;37.656;2023-03-23T14:33:53;5.40;;;3.88;;
43813;SDS011;29669;55.706;37.656;2023-03-23T14:36:28;22.33;;;16.23;;
43813;SDS011;29669;55.706;37.656;2023-03-23T14:41:47;12.60;;;5.07;;
43813;SDS011;29669;55.706;37.656;2023-03-23T14:44:17;6.82;;;3.95;;
43813;SDS011;29669;55.706;37.656;2023-03-23T14:46:48;6.72;;;3.75;;
43813;SDS011;29669;55.706;37.656;2023-03-23T14:49:18;7.85;;;4.47;;
43813;SDS011;29669;55.706;37.656;2023-03-23T14:52:01;8.18;;;5.10;;
43813;SDS011;29669;55.706;37.656;2023-03-23T14:59:39;5.03;;;3.30;;
43813;SDS011;29669;55.706;37.656;2023-03-23T15:02:09;9.57;;;3.95;;
43813;SDS011;29669;55.706;37.656;2023-03-23T15:04:43;6.70;;;3.47;;
43813;SDS011;29669;55.706;37.656;2023-03-23T15:07:14;4.85;;;3.50;;
43813;SDS011;29669;55.706;37.656;2023-03-23T15:09:43;7.65;;;3.97;;
43813;SDS011;29669;55.706;37.656;2023-03-23T15:12:22;10.38;;;4.68;;
43813;SDS011;29669;55.706;37.656;2023-03-23T15:14:51;7.28;;;4.38;;
43813;SDS011;29669;55.706;37.656;2023-03-23T15:17:28;9.07;;;5.90;;
43813;SDS011;29669;55.706;37.656;2023-03-23T15:25:16;6.55;;;4.53;;
43813;SDS011;29669;55.706;37.656;2023-03-23T15:27:48;9.70;;;5.15;;
43813;SDS011;29669;55.706;37.656;2023-03-23T15:30:48;9.02;;;4.85;;
43813;SDS011;29669;55.706;37.656;2023-03-23T15:33:21;6.00;;;4.00;;
43813;SDS011;29669;55.706;37.656;2023-03-23T15:35:54;5.35;;;3.88;;
43813;SDS011;29669;55.706;37.656;2023-03-23T15:38:24;4.93;;;3.53;;
43813;SDS011;29669;55.706;37.656;2023-03-23T15:40:53;5.78;;;3.92;;
43813;SDS011;29669;55.706;37.656;2023-03-23T15:43:24;5.43;;;3.40;;
43813;SDS011;29669;55.706;37.656;2023-03-23T15:48:49;9.55;;;3.72;;
43813;SDS011;29669;55.706;37.656;2023-03-23T15:51:16;5.63;;;4.07;;
43813;SDS011;29669;55.706;37.656;2023-03-23T15:53:45;7.05;;;4.07;;
43813;SDS011;29669;55.706;37.656;2023-03-23T15:56:12;8.38;;;4.40;;
43813;SDS011;29669;55.706;37.656;2023-03-23T15:58:40;7.88;;;4.18;;
43813;SDS011;29669;55.706;37.656;2023-03-23T16:01:11;6.03;;;3.70;;
43813;SDS011;29669;55.706;37.656;2023-03-23T16:03:53;4.57;;;3.25;;
43813;SDS011;29669;55.706;37.656;2023-03-23T16:06:22;6.53;;;4.38;;
43813;SDS011;29669;55.706;37.656;2023-03-23T16:08:57;7.95;;;3.58;;
43813;SDS011;29669;55.706;37.656;2023-03-23T16:11:28;6.50;;;4.10;;
43813;SDS011;29669;55.706;37.656;2023-03-23T16:13:59;6.45;;;4.07;;
43813;SDS011;29669;55.706;37.656;2023-03-23T16:16:34;8.82;;;3.88;;
43813;SDS011;29669;55.706;37.656;2023-03-23T16:19:05;7.05;;;3.60;;
43813;SDS011;29669;55.706;37.656;2023-03-23T16:21:35;9.50;;;3.45;;
43813;SDS011;29669;55.706;37.656;2023-03-23T16:24:02;6.35;;;4.18;;
43813;SDS011;29669;55.706;37.656;2023-03-23T16:26:30;8.70;;;4.13;;
43813;SDS011;29669;55.706;37.656;2023-03-23T16:28:58;6.47;;;3.45;;
43813;SDS011;29669;55.706;37.656;2023-03-23T16:31:38;11.98;;;3.95;;
43813;SDS011;29669;55.706;37.656;2023-03-23T16:34:08;7.00;;;3.60;;
43813;SDS011;29669;55.706;37.656;2023-03-23T16:36:36;7.45;;;4.28;;
43813;SDS011;29669;55.706;37.656;2023-03-23T16:39:04;7.32;;;3.72;;
43813;SDS011;29669;55.706;37.656;2023-03-23T16:41:32;7.05;;;4.18;;
43813;SDS011;29669;55.706;37.656;2023-03-23T16:44:00;7.88;;;4.32;;
43813;SDS011;29669;55.706;37.656;2023-03-23T16:46:29;8.90;;;5.55;;
43813;SDS011;29669;55.706;37.656;2023-03-23T16:48:59;11.93;;;4.22;;
43813;SDS011;29669;55.706;37.656;2023-03-23T16:51:27;8.05;;;4.13;;
43813;SDS011;29669;55.706;37.656;2023-03-23T16:53:54;6.00;;;4.00;;
43813;SDS011;29669;55.706;37.656;2023-03-23T16:56:22;13.45;;;4.57;;
43813;SDS011;29669;55.706;37.656;2023-03-23T16:58:53;9.77;;;4.35;;
43813;SDS011;29669;55.706;37.656;2023-03-23T17:01:21;7.53;;;4.95;;
43813;SDS011;29669;55.706;37.656;2023-03-23T17:03:49;10.23;;;4.75;;
43813;SDS011;29669;55.706;37.656;2023-03-23T17:06:17;7.32;;;4.18;;
43813;SDS011;29669;55.706;37.656;2023-03-23T17:08:44;11.05;;;4.20;;
43813;SDS011;29669;55.706;37.656;2023-03-23T17:11:12;9.20;;;4.45;;
43813;SDS011;29669;55.706;37.656;2023-03-23T17:13:40;8.63;;;4.18;;
43813;SDS011;29669;55.706;37.656;2023-03-23T17:16:08;11.38;;;3.85;;
43813;SDS011;29669;55.706;37.656;2023-03-23T17:18:37;10.90;;;5.00;;
43813;SDS011;29669;55.706;37.656;2023-03-23T17:21:05;9.73;;;4.03;;
43813;SDS011;29669;55.706;37.656;2023-03-23T17:23:33;5.28;;;3.97;;
43813;SDS011;29669;55.706;37.656;2023-03-23T17:26:01;6.55;;;3.85;;
43813;SDS011;29669;55.706;37.656;2023-03-23T17:28:29;11.65;;;5.30;;
43813;SDS011;29669;55.706;37.656;2023-03-23T17:30:57;8.20;;;4.60;;
43813;SDS011;29669;55.706;37.656;2023-03-23T17:33:24;14.90;;;4.60;;
43813;SDS011;29669;55.706;37.656;2023-03-23T17:35:52;10.02;;;4.82;;
43813;SDS011;29669;55.706;37.656;2023-03-23T17:38:21;8.90;;;5.00;;
43813;SDS011;29669;55.706;37.656;2023-03-23T17:40:54;9.18;;;5.78;;
43813;SDS011;29669;55.706;37.656;2023-03-23T17:43:28;14.45;;;6.35;;
43813;SDS011;29669;55.706;37.656;2023-03-23T17:45:56;10.02;;;4.32;;
43813;SDS011;29669;55.706;37.656;2023-03-23T17:48:23;17.08;;;5.07;;
43813;SDS011;29669;55.706;37.656;2023-03-23T17:50:54;8.27;;;4.32;;
43813;SDS011;29669;55.706;37.656;2023-03-23T17:53:24;6.97;;;4.40;;
43813;SDS011;29669;55.706;37.656;2023-03-23T17:55:52;7.90;;;4.43;;
43813;SDS011;29669;55.706;37.656;2023-03-23T17:58:32;8.27;;;4.65;;